createdAt,value
2018-05-06T00:01:16.381Z,2.57
2018-05-06T00:03:43.886Z,2.37
2018-05-06T00:06:11.369Z,2.70
2018-05-06T00:08:38.864Z,3.27
2018-05-06T00:11:06.351Z,2.43
2018-05-06T00:13:33.816Z,2.90
2018-05-06T00:16:01.309Z,3.13
2018-05-06T00:18:28.860Z,3.00
2018-05-06T00:20:56.406Z,3.00
2018-05-06T00:23:23.911Z,3.00
2018-05-06T00:25:51.401Z,3.00
2018-05-06T00:28:18.892Z,3.43
2018-05-06T00:30:46.387Z,3.10
2018-05-06T00:33:13.884Z,2.80
2018-05-06T00:35:41.387Z,3.17
2018-05-06T00:38:08.872Z,3.40
2018-05-06T00:40:36.411Z,3.50
2018-05-06T00:43:03.971Z,3.30
2018-05-06T00:45:31.478Z,3.43
2018-05-06T00:47:58.992Z,3.43
2018-05-06T00:50:26.495Z,3.40
2018-05-06T00:52:54.006Z,3.03
2018-05-06T00:55:21.559Z,3.73
2018-05-06T00:57:49.059Z,3.23
2018-05-06T01:00:16.532Z,3.40
2018-05-06T01:02:44.013Z,3.07
2018-05-06T01:05:11.510Z,3.30
2018-05-06T01:07:39.057Z,3.50
2018-05-06T01:10:06.630Z,3.70
2018-05-06T01:12:34.106Z,3.70
2018-05-06T01:15:01.599Z,3.73
2018-05-06T01:17:29.123Z,4.23
2018-05-06T01:19:56.625Z,3.40
2018-05-06T01:22:24.119Z,3.60
2018-05-06T01:24:51.618Z,3.47
2018-05-06T01:27:19.102Z,3.33
2018-05-06T01:29:46.581Z,3.43
2018-05-06T01:32:14.087Z,3.40
2018-05-06T01:34:41.612Z,3.33
2018-05-06T01:37:09.174Z,3.77
2018-05-06T01:39:36.656Z,3.97
2018-05-06T01:42:04.149Z,3.60
2018-05-06T01:44:31.666Z,4.13
2018-05-06T01:46:59.127Z,4.57
2018-05-06T01:49:26.597Z,4.00
2018-05-06T01:51:54.087Z,4.20
2018-05-06T01:54:21.585Z,4.30
2018-05-06T01:56:49.081Z,4.00
2018-05-06T01:59:16.556Z,3.83
2018-05-06T02:01:44.039Z,4.17
2018-05-06T02:04:11.559Z,4.30
2018-05-06T02:06:39.055Z,4.07
2018-05-06T02:09:06.535Z,4.70
2018-05-06T02:11:34.006Z,4.10
2018-05-06T02:14:01.517Z,4.33
2018-05-06T02:16:29.040Z,4.07
2018-05-06T02:18:56.524Z,4.07
2018-05-06T02:21:24.010Z,4.10
2018-05-06T02:23:51.492Z,3.97
2018-05-06T02:26:18.979Z,3.87
2018-05-06T02:28:46.479Z,3.40
2018-05-06T02:31:13.983Z,3.60
2018-05-06T02:33:41.471Z,4.20
2018-05-06T02:36:08.941Z,3.90
2018-05-06T02:38:36.434Z,4.30
2018-05-06T02:41:03.916Z,4.00
2018-05-06T02:43:31.427Z,3.97
2018-05-06T02:45:58.931Z,4.03
2018-05-06T02:48:26.426Z,4.10
2018-05-06T02:50:53.926Z,4.07
2018-05-06T02:53:21.419Z,3.57
2018-05-06T02:55:48.889Z,4.37
2018-05-06T02:58:16.459Z,4.40
2018-05-06T03:00:43.970Z,4.53
2018-05-06T03:03:11.449Z,3.83
2018-05-06T03:05:38.955Z,4.37
2018-05-06T03:08:06.439Z,4.40
2018-05-06T03:10:33.943Z,5.10
2018-05-06T03:13:01.459Z,4.37
2018-05-06T03:15:28.955Z,4.50
2018-05-06T03:17:56.447Z,3.77
2018-05-06T03:20:23.918Z,4.10
2018-05-06T03:22:51.400Z,4.63
2018-05-06T03:25:18.899Z,4.93
2018-05-06T03:27:46.394Z,4.37
2018-05-06T03:30:13.870Z,4.40
2018-05-06T03:32:41.366Z,4.50
2018-05-06T03:35:08.853Z,4.27
2018-05-06T03:37:36.360Z,4.23
2018-05-06T03:40:03.846Z,4.10
2018-05-06T03:42:31.355Z,4.43
2018-05-06T03:44:58.838Z,4.70
2018-05-06T03:47:26.319Z,5.30
2018-05-06T03:49:53.809Z,4.60
2018-05-06T03:52:21.294Z,4.50
2018-05-06T03:54:48.804Z,3.73
2018-05-06T03:57:28.188Z,4.47
2018-05-06T04:00:07.479Z,4.80
2018-05-06T04:02:40.625Z,4.40
2018-05-06T04:05:08.112Z,4.20
2018-05-06T04:07:35.603Z,4.67
2018-05-06T04:10:03.080Z,4.93
2018-05-06T04:12:30.560Z,4.93
2018-05-06T04:14:58.069Z,5.00
2018-05-06T04:17:25.561Z,5.50
2018-05-06T04:19:53.032Z,5.80
2018-05-06T04:22:20.539Z,5.20
2018-05-06T04:24:48.095Z,5.30
2018-05-06T04:27:15.593Z,5.90
2018-05-06T04:29:43.088Z,5.63
2018-05-06T04:32:11.443Z,5.47
2018-05-06T04:34:38.943Z,5.27
2018-05-06T04:37:06.422Z,5.77
2018-05-06T04:39:33.924Z,5.90
2018-05-06T04:42:01.400Z,5.40
2018-05-06T04:44:28.889Z,6.40
2018-05-06T04:46:56.365Z,5.63
2018-05-06T04:49:23.850Z,5.90
2018-05-06T04:51:51.318Z,6.30
2018-05-06T04:54:18.812Z,6.40
2018-05-06T04:56:46.298Z,5.60
2018-05-06T04:59:13.784Z,5.67
2018-05-06T05:01:41.268Z,5.77
2018-05-06T05:04:08.778Z,5.87
2018-05-06T05:06:36.340Z,5.97
2018-05-06T05:09:03.820Z,6.23
2018-05-06T05:11:31.294Z,5.80
2018-05-06T05:13:58.788Z,5.50
2018-05-06T05:16:26.301Z,5.50
2018-05-06T05:18:53.846Z,5.40
2018-05-06T05:21:21.377Z,5.00
2018-05-06T05:23:48.997Z,5.20
2018-05-06T05:26:16.495Z,5.03
2018-05-06T05:28:43.971Z,5.27
2018-05-06T05:31:14.929Z,5.90
2018-05-06T05:33:42.439Z,5.27
2018-05-06T05:36:09.935Z,5.40
2018-05-06T05:38:37.431Z,5.30
2018-05-06T05:41:04.934Z,6.73
2018-05-06T05:43:32.438Z,6.07
2018-05-06T05:45:59.936Z,5.63
2018-05-06T05:48:27.460Z,5.00
2018-05-06T05:50:55.025Z,5.07
2018-05-06T05:53:22.686Z,5.70
2018-05-06T05:55:50.247Z,6.20
2018-05-06T05:58:17.797Z,5.20
2018-05-06T06:00:45.338Z,5.17
2018-05-06T06:03:13.025Z,5.33
2018-05-06T06:05:40.526Z,4.60
2018-05-06T06:08:08.278Z,4.83
2018-05-06T06:10:35.965Z,5.07
2018-05-06T06:13:03.734Z,3.83
2018-05-06T06:15:31.249Z,4.23
2018-05-06T06:17:58.920Z,4.13
2018-05-06T06:20:28.395Z,4.63
2018-05-06T06:22:55.909Z,4.03
2018-05-06T06:25:23.471Z,4.40
2018-05-06T06:27:51.273Z,4.57
2018-05-06T06:30:18.780Z,3.97
2018-05-06T06:32:46.445Z,3.63
2018-05-06T06:35:14.002Z,4.17
2018-05-06T06:37:41.531Z,4.90
2018-05-06T06:40:09.207Z,4.03
2018-05-06T06:42:36.777Z,3.70
2018-05-06T06:45:04.387Z,4.17
2018-05-06T06:47:32.071Z,4.17
2018-05-06T06:49:59.616Z,4.30
2018-05-06T06:52:28.824Z,4.07
2018-05-06T06:54:56.351Z,4.53
2018-05-06T06:57:23.846Z,4.43
2018-05-06T06:59:51.360Z,4.00
2018-05-06T07:02:18.917Z,4.47
2018-05-06T07:04:46.461Z,4.40
2018-05-06T07:07:14.081Z,4.70
2018-05-06T07:09:41.711Z,4.50
2018-05-06T07:12:09.296Z,4.67
2018-05-06T07:14:36.867Z,4.50
2018-05-06T07:17:04.350Z,4.53
2018-05-06T07:19:31.834Z,4.20
2018-05-06T07:21:59.401Z,4.50
2018-05-06T07:24:27.084Z,4.53
2018-05-06T07:26:54.690Z,4.13
2018-05-06T07:29:22.264Z,4.43
2018-05-06T07:31:49.786Z,4.57
2018-05-06T07:34:18.049Z,4.60
2018-05-06T07:36:45.601Z,3.97
2018-05-06T07:39:13.121Z,3.97
2018-05-06T07:41:40.613Z,3.83
2018-05-06T07:44:08.240Z,4.40
2018-05-06T07:46:35.907Z,4.33
2018-05-06T07:49:03.510Z,3.77
2018-05-06T07:51:32.249Z,4.07
2018-05-06T07:53:59.768Z,4.50
2018-05-06T07:56:27.365Z,3.97
2018-05-06T07:58:54.998Z,3.70
2018-05-06T08:01:22.480Z,4.07
2018-05-06T08:03:50.224Z,4.10
2018-05-06T08:06:17.926Z,3.50
2018-05-06T08:08:45.574Z,3.93
2018-05-06T08:11:13.107Z,4.33
2018-05-06T08:13:40.802Z,3.60
2018-05-06T08:16:09.965Z,3.40
2018-05-06T08:18:37.976Z,3.80
2018-05-06T08:21:05.554Z,3.33
2018-05-06T08:23:34.036Z,3.43
2018-05-06T08:26:01.729Z,3.47
2018-05-06T08:28:29.485Z,3.47
2018-05-06T08:30:57.089Z,4.57
2018-05-06T08:33:24.948Z,3.63
2018-05-06T08:35:52.469Z,3.60
2018-05-06T08:38:19.986Z,3.27
2018-05-06T08:40:47.595Z,3.13
2018-05-06T08:43:16.611Z,3.10
2018-05-06T08:45:44.310Z,3.77
2018-05-06T08:48:11.874Z,3.83
2018-05-06T08:50:40.234Z,3.43
2018-05-06T08:53:07.724Z,3.27
2018-05-06T08:55:35.231Z,3.70
2018-05-06T08:58:03.015Z,4.20
2018-05-06T09:00:30.658Z,3.93
2018-05-06T09:02:58.195Z,3.50
2018-05-06T09:05:25.682Z,3.50
2018-05-06T09:07:53.177Z,3.53
2018-05-06T09:10:20.671Z,3.77
2018-05-06T09:12:48.163Z,3.80
2018-05-06T09:15:15.675Z,3.37
2018-05-06T09:17:43.187Z,3.13
2018-05-06T09:20:10.695Z,3.37
2018-05-06T09:22:38.204Z,2.87
2018-05-06T09:25:05.695Z,3.10
2018-05-06T09:27:33.227Z,2.90
2018-05-06T09:30:00.776Z,3.03
2018-05-06T09:32:28.385Z,3.17
2018-05-06T09:34:55.883Z,3.00
2018-05-06T09:37:23.795Z,2.00
2018-05-06T09:39:52.461Z,2.83
2018-05-06T09:42:22.927Z,2.53
2018-05-06T09:44:51.216Z,2.90
2018-05-06T09:47:18.771Z,2.60
2018-05-06T09:49:49.332Z,2.63
2018-05-06T09:52:16.842Z,2.57
2018-05-06T09:54:44.316Z,3.07
2018-05-06T09:57:11.866Z,2.30
2018-05-06T09:59:40.113Z,2.10
2018-05-06T10:02:07.598Z,1.70
2018-05-06T10:04:35.120Z,2.17
2018-05-06T10:07:02.624Z,2.13
2018-05-06T10:09:30.125Z,2.10
2018-05-06T10:11:57.635Z,2.03
2018-05-06T10:14:25.128Z,2.07
2018-05-06T10:16:52.643Z,2.07
2018-05-06T10:19:20.200Z,2.00
2018-05-06T10:21:47.686Z,2.43
2018-05-06T10:24:15.213Z,2.10
2018-05-06T10:26:42.726Z,2.10
2018-05-06T10:29:10.305Z,2.43
2018-05-06T10:31:38.007Z,2.17
2018-05-06T10:34:05.629Z,2.13
2018-05-06T10:36:33.182Z,2.10
2018-05-06T10:39:00.684Z,2.17
2018-05-06T10:41:28.234Z,2.00
2018-05-06T10:43:55.746Z,2.00
2018-05-06T10:46:23.250Z,2.33
2018-05-06T10:48:50.755Z,2.50
2018-05-06T10:51:18.279Z,2.30
2018-05-06T10:53:45.795Z,2.17
2018-05-06T10:56:13.302Z,1.83
2018-05-06T10:58:40.873Z,2.10
2018-05-06T11:01:08.340Z,1.93
2018-05-06T11:03:35.914Z,2.10
2018-05-06T11:06:03.418Z,2.07
2018-05-06T11:08:31.569Z,2.40
2018-05-06T11:10:59.078Z,2.10
2018-05-06T11:13:26.595Z,2.20
2018-05-06T11:15:54.085Z,1.40
2018-05-06T11:18:21.839Z,1.70
2018-05-06T11:20:49.359Z,1.80
2018-05-06T11:23:16.832Z,2.23
2018-05-06T11:25:44.451Z,1.73
2018-05-06T11:28:12.860Z,1.60
2018-05-06T11:30:40.879Z,1.70
2018-05-06T11:33:08.387Z,1.87
2018-05-06T11:35:36.207Z,1.80
2018-05-06T11:38:03.699Z,1.90
2018-05-06T11:40:31.228Z,1.77
2018-05-06T11:49:15.074Z,1.63
2018-05-06T11:51:42.561Z,1.77
2018-05-06T11:54:10.063Z,1.60
2018-05-06T11:56:37.558Z,1.60
2018-05-06T11:59:05.049Z,1.77
2018-05-06T12:01:32.544Z,2.10
2018-05-06T12:04:00.041Z,1.50
2018-05-06T12:06:27.524Z,2.87
2018-05-06T12:08:55.117Z,2.90
2018-05-06T12:11:22.613Z,1.90
2018-05-06T12:13:50.136Z,3.00
2018-05-06T12:16:18.184Z,2.77
2018-05-06T12:18:45.701Z,1.77
2018-05-06T12:21:13.211Z,2.47
2018-05-06T12:23:40.785Z,1.73
2018-05-06T12:26:08.255Z,1.67
2018-05-06T12:28:35.741Z,1.50
2018-05-06T12:31:03.276Z,1.40
2018-05-06T12:33:30.773Z,1.77
2018-05-06T12:35:58.840Z,1.60
2018-05-06T12:38:26.331Z,1.60
2018-05-06T12:40:54.795Z,1.40
2018-05-06T12:43:22.394Z,1.67
2018-05-06T12:45:49.851Z,1.70
2018-05-06T12:48:17.371Z,1.70
2018-05-06T12:50:44.906Z,1.60
2018-05-06T12:53:12.422Z,1.50
2018-05-06T12:55:39.896Z,1.27
2018-05-06T12:58:07.811Z,1.63
2018-05-06T13:00:35.346Z,1.70
2018-05-06T13:03:02.873Z,1.73
2018-05-06T13:05:30.395Z,1.63
2018-05-06T13:07:57.920Z,1.67
2018-05-06T13:10:25.410Z,1.47
2018-05-06T13:12:52.920Z,1.70
2018-05-06T13:15:20.424Z,1.70
2018-05-06T13:17:47.905Z,1.50
2018-05-06T13:20:15.425Z,2.07
2018-05-06T13:22:42.905Z,1.90
2018-05-06T13:25:10.383Z,1.63
2018-05-06T13:27:37.874Z,1.97
2018-05-06T13:30:05.444Z,2.00
2018-05-06T13:32:32.938Z,2.00
2018-05-06T13:35:00.430Z,2.20
2018-05-06T13:37:27.921Z,1.80
2018-05-06T13:39:55.539Z,2.00
2018-05-06T13:42:23.046Z,2.20
2018-05-06T13:44:50.532Z,2.00
2018-05-06T13:47:18.019Z,1.90
2018-05-06T13:49:45.573Z,2.53
2018-05-06T13:52:13.032Z,2.50
2018-05-06T13:54:40.554Z,2.37
2018-05-06T13:57:08.033Z,1.97
2018-05-06T13:59:35.537Z,1.90
2018-05-06T14:02:03.065Z,2.00
2018-05-06T14:04:30.608Z,2.40
2018-05-06T14:06:58.069Z,1.90
2018-05-06T14:09:25.600Z,2.30
2018-05-06T14:11:53.118Z,2.03
2018-05-06T14:14:20.644Z,2.10
2018-05-06T14:16:48.184Z,2.30
2018-05-06T14:19:15.685Z,2.10
2018-05-06T14:21:43.282Z,2.40
2018-05-06T14:24:10.695Z,2.20
2018-05-06T14:26:38.213Z,2.17
2018-05-06T14:29:05.716Z,2.10
2018-05-06T14:31:33.273Z,2.00
2018-05-06T14:34:00.780Z,2.27
2018-05-06T14:36:28.262Z,2.27
2018-05-06T14:38:55.746Z,2.00
2018-05-06T14:41:23.319Z,2.37
2018-05-06T14:43:50.852Z,2.33
2018-05-06T14:46:38.937Z,2.10
2018-05-06T14:49:06.429Z,2.07
2018-05-06T14:51:33.955Z,2.00
2018-05-06T14:54:01.467Z,1.87
2018-05-06T14:56:28.995Z,1.83
2018-05-06T14:58:56.535Z,2.57
2018-05-06T15:01:24.122Z,1.80
2018-05-06T15:03:51.621Z,1.80
2018-05-06T15:06:19.139Z,1.93
2018-05-06T15:08:46.686Z,1.90
2018-05-06T15:11:14.177Z,2.07
2018-05-06T15:13:41.661Z,2.37
2018-05-06T15:16:09.213Z,1.60
2018-05-06T15:18:36.741Z,1.90
2018-05-06T15:21:04.331Z,1.70
2018-05-06T15:23:31.815Z,1.80
2018-05-06T15:25:59.356Z,1.70
2018-05-06T15:28:26.855Z,1.50
2018-05-06T15:30:54.375Z,1.70
2018-05-06T15:33:21.854Z,1.77
2018-05-06T15:35:49.342Z,1.80
2018-05-06T15:38:16.837Z,1.70
2018-05-06T15:40:44.334Z,1.83
2018-05-06T15:43:12.128Z,1.70
2018-05-06T15:45:39.659Z,1.80
2018-05-06T15:48:07.163Z,2.03
2018-05-06T15:50:34.758Z,1.90
2018-05-06T15:53:02.237Z,1.57
2018-05-06T15:55:29.916Z,1.50
2018-05-06T15:57:57.446Z,1.60
2018-05-06T16:00:24.934Z,1.80
2018-05-06T16:03:05.088Z,1.63
2018-05-06T16:05:32.565Z,1.60
2018-05-06T16:08:00.068Z,1.93
2018-05-06T16:10:27.581Z,2.00
2018-05-06T16:12:55.097Z,1.50
2018-05-06T16:15:22.593Z,1.57
2018-05-06T16:17:50.165Z,1.53
2018-05-06T16:20:18.720Z,1.33
2018-05-06T16:22:46.337Z,2.17
2018-05-06T16:25:13.915Z,1.87
2018-05-06T16:27:41.500Z,2.00
2018-05-06T16:30:09.437Z,1.47
2018-05-06T16:32:37.069Z,1.90
2018-05-06T16:35:04.677Z,1.70
2018-05-06T16:37:32.208Z,1.97
2018-05-06T16:39:59.785Z,1.67
2018-05-06T16:42:27.703Z,1.90
2018-05-06T16:44:55.454Z,1.60
2018-05-06T16:47:22.948Z,1.67
2018-05-06T16:49:50.444Z,1.87
2018-05-06T16:52:19.208Z,1.67
2018-05-06T16:54:46.710Z,1.20
2018-05-06T16:57:14.428Z,1.53
2018-05-06T16:59:42.673Z,1.60
2018-05-06T17:02:10.179Z,1.60
2018-05-06T17:04:37.734Z,2.07
2018-05-06T17:07:05.352Z,1.77
2018-05-06T17:09:34.094Z,2.00
2018-05-06T17:12:01.718Z,2.10
2018-05-06T17:14:29.294Z,1.80
2018-05-06T17:16:56.915Z,1.97
2018-05-06T17:19:25.776Z,1.87
2018-05-06T17:21:54.002Z,1.77
2018-05-06T17:24:21.551Z,1.67
2018-05-06T17:26:49.316Z,1.93
2018-05-06T17:29:17.481Z,1.50
2018-05-06T17:31:45.592Z,1.70
2018-05-06T17:34:13.080Z,1.60
2018-05-06T17:36:41.203Z,1.60
2018-05-06T17:39:09.943Z,1.63
2018-05-06T17:41:37.569Z,1.73
2018-05-06T17:44:05.049Z,1.60
2018-05-06T17:46:32.560Z,2.07
2018-05-06T17:51:53.305Z,1.70
2018-05-06T17:54:23.067Z,1.87
2018-05-06T17:56:50.723Z,1.60
2018-05-06T17:59:19.826Z,1.70
2018-05-06T18:01:47.446Z,1.80
2018-05-06T18:04:14.936Z,1.90
2018-05-06T18:06:42.752Z,2.03
2018-05-06T18:09:10.252Z,2.00
2018-05-06T18:11:37.873Z,2.00
2018-05-06T18:14:05.625Z,2.10
2018-05-06T18:16:33.426Z,1.70
2018-05-06T18:19:01.104Z,2.37
2018-05-06T18:21:33.982Z,2.47
2018-05-06T18:24:01.514Z,2.13
2018-05-06T18:26:29.227Z,2.07
2018-05-06T18:28:56.914Z,1.90
2018-05-06T18:31:24.537Z,1.97
2018-05-06T18:33:52.095Z,1.87
2018-05-06T18:36:19.648Z,2.10
2018-05-06T18:38:47.288Z,2.07
2018-05-06T18:41:14.865Z,2.00
2018-05-06T18:43:42.387Z,1.83
2018-05-06T18:46:09.888Z,2.00
2018-05-06T18:48:37.718Z,2.33
2018-05-06T18:51:05.893Z,2.53
2018-05-06T18:53:33.463Z,2.27
2018-05-06T18:56:01.124Z,2.00
2018-05-06T18:58:28.699Z,2.00
2018-05-06T19:00:56.442Z,2.10
2018-05-06T19:03:24.106Z,1.90
2018-05-06T19:05:51.701Z,1.97
2018-05-06T19:08:19.379Z,1.87
2018-05-06T19:10:48.481Z,2.00
2018-05-06T19:13:16.213Z,2.00
2018-05-06T19:15:43.760Z,2.00
2018-05-06T19:18:11.294Z,2.30
2018-05-06T19:20:38.772Z,2.10
2018-05-06T19:23:06.513Z,2.20
2018-05-06T19:25:33.996Z,1.90
2018-05-06T19:28:01.503Z,1.90
2018-05-06T19:30:29.320Z,1.67
2018-05-06T19:32:56.935Z,1.97
2018-05-06T19:35:24.583Z,2.03
2018-05-06T19:37:52.157Z,1.77
2018-05-06T19:40:19.831Z,2.33
2018-05-06T19:42:47.567Z,2.30
2018-05-06T19:45:15.113Z,2.10
2018-05-06T19:47:42.656Z,1.90
2018-05-06T19:50:10.252Z,1.97
2018-05-06T19:52:37.807Z,2.00
2018-05-06T19:55:05.376Z,1.93
2018-05-06T19:57:32.863Z,1.90
2018-05-06T20:00:00.406Z,2.23
2018-05-06T20:02:27.968Z,1.97
2018-05-06T20:04:55.776Z,2.27
2018-05-06T20:07:23.410Z,1.70
2018-05-06T20:09:50.916Z,2.03
2018-05-06T20:12:18.426Z,2.03
2018-05-06T20:14:46.048Z,2.40
2018-05-06T20:17:13.759Z,2.00
2018-05-06T20:19:41.527Z,1.93
2018-05-06T20:22:09.065Z,1.83
2018-05-06T20:24:36.737Z,1.83
2018-05-06T20:27:04.452Z,2.37
2018-05-06T20:29:32.508Z,2.07
2018-05-06T20:32:00.242Z,1.63
2018-05-06T20:34:28.012Z,1.63
2018-05-06T20:36:55.578Z,2.00
2018-05-06T20:39:23.113Z,1.80
2018-05-06T20:41:50.607Z,1.73
2018-05-06T20:44:18.122Z,1.70
2018-05-06T20:46:45.635Z,1.87
2018-05-06T20:49:13.257Z,2.00
2018-05-06T20:51:40.798Z,2.20
2018-05-06T20:54:08.277Z,2.20
2018-05-06T20:56:35.883Z,2.10
2018-05-06T20:59:03.472Z,2.13
2018-05-06T21:01:30.961Z,2.07
2018-05-06T21:04:00.298Z,1.93
2018-05-06T21:06:27.914Z,2.20
2018-05-06T21:08:55.393Z,2.37
2018-05-06T21:11:22.866Z,2.10
2018-05-06T21:13:50.378Z,2.30
2018-05-06T21:16:18.009Z,1.93
2018-05-06T21:18:45.499Z,2.17
2018-05-06T21:21:13.015Z,1.87
2018-05-06T21:23:40.557Z,2.13
2018-05-06T21:26:08.067Z,2.50
2018-05-06T21:28:35.649Z,2.33
2018-05-06T21:31:03.071Z,2.20
2018-05-06T21:33:30.603Z,2.10
2018-05-06T21:35:58.393Z,2.40
2018-05-06T21:38:25.846Z,2.17
2018-05-06T21:40:53.338Z,1.77
2018-05-06T21:43:20.901Z,2.20
2018-05-06T21:45:48.358Z,1.90
2018-05-06T21:48:15.850Z,2.40
2018-05-06T21:50:43.468Z,2.00
2018-05-06T21:53:10.931Z,2.20
2018-05-06T21:55:38.448Z,2.07
2018-05-06T21:58:05.948Z,1.90
2018-05-06T22:00:33.471Z,1.97
2018-05-06T22:03:00.961Z,2.00
2018-05-06T22:05:28.435Z,2.10
2018-05-06T22:07:55.930Z,1.80
2018-05-06T22:10:23.443Z,1.93
2018-05-06T22:12:50.956Z,2.13
2018-05-06T22:15:18.427Z,2.40
2018-05-06T22:17:45.922Z,2.07
2018-05-06T22:20:13.446Z,2.10
2018-05-06T22:22:41.004Z,2.10
2018-05-06T22:25:08.460Z,2.00
2018-05-06T22:27:35.959Z,2.10
2018-05-06T22:30:03.506Z,1.80
2018-05-06T22:32:30.981Z,2.03
2018-05-06T22:34:58.524Z,1.70
2018-05-06T22:37:26.018Z,1.80
2018-05-06T22:39:53.509Z,2.10
2018-05-06T22:42:21.022Z,2.50
2018-05-06T22:44:48.533Z,2.37
2018-05-06T22:47:15.999Z,2.03
2018-05-06T22:49:43.497Z,1.97
2018-05-06T22:52:11.010Z,2.47
2018-05-06T22:54:38.490Z,2.53
2018-05-06T22:57:06.055Z,2.30
2018-05-06T22:59:33.550Z,2.80
2018-05-06T23:02:01.063Z,2.40
2018-05-06T23:04:28.559Z,1.90
2018-05-06T23:06:56.032Z,2.33
2018-05-06T23:09:23.522Z,2.60
2018-05-06T23:11:51.016Z,2.67
2018-05-06T23:14:18.479Z,3.07
2018-05-06T23:16:45.980Z,2.40
2018-05-06T23:19:13.477Z,2.37
2018-05-06T23:21:40.982Z,2.60
2018-05-06T23:24:08.473Z,2.57
2018-05-06T23:26:35.961Z,2.73
2018-05-06T23:29:03.464Z,2.43
2018-05-06T23:31:30.951Z,2.30
2018-05-06T23:33:58.447Z,2.77
2018-05-06T23:36:25.939Z,2.13
2018-05-06T23:38:53.468Z,2.47
2018-05-06T23:41:20.967Z,2.80
2018-05-06T23:43:48.493Z,2.90
2018-05-06T23:46:15.983Z,2.90
2018-05-06T23:48:43.490Z,2.93
2018-05-06T23:51:10.973Z,2.53
2018-05-06T23:53:38.515Z,2.70
2018-05-06T23:56:06.001Z,2.50
2018-05-06T23:58:33.509Z,2.63
